Elk Mountain AWOS, WY

Date: 2024-06-11 08:15:00Z

Type: METAR

Weather: Thunderstorms

Winds: 40° at 8 kts

Visibility: 10+

Ceiling (AGL FT): Clouds CLR at 11000, BROKEN at 18000, SCATTERED at 4900, BROKEN at 7000

RAW METAR: KEHY 110815Z AUTO 04008KT 10SM TS CLR 11/07 A3017 RMK AO2

project-image